Time;durP1;ratioP1;P1;durP2;ratioP2;P2;SDS_P1;SDS_P2;PMS_P1;PMS_P2;Temp;Humidity;BMP_temperature;BMP_pressure;BME280_temperature;BME280_humidity;BME280_pressure;Samples;Min_cycle;Max_cycle;Signal;HPM_P1;HPM_P2
2021/09/13 05:48:06;;;;;;;88.25;22.17;;;;;;;14.29;77.32;99879.70;1673860;82;21565;-37
2021/09/13 05:50:56;;;;;;;39.73;17.00;;;;;;;14.56;76.16;99880.89;1690490;81;21037;-38
2021/09/13 05:57:45;;;;;;;45.35;19.10;;;;;;;14.85;74.52;99877.13;1683356;81;21075;-38
2021/09/13 06:00:25;;;;;;;36.55;17.50;;;;;;;14.92;74.61;99878.30;1624518;85;21044;-39
2021/09/13 06:03:20;;;;;;;35.23;16.55;;;;;;;14.97;74.80;99877.28;1634199;85;21596;-39
2021/09/13 06:06:54;;;;;;;40.63;17.92;;;;;;;15.04;74.94;99872.72;1634387;82;21076;-36
2021/09/13 06:09:40;;;;;;;34.92;16.80;;;;;;;15.11;75.05;99875.61;1582580;87;21739;-38
2021/09/13 06:12:24;;;;;;;36.98;16.50;;;;;;;15.26;75.14;99875.69;1556044;89;21168;-36
2021/09/13 06:46:13;;;;;;;28.75;15.18;;;;;;;17.03;70.42;99874.01;1669723;83;21185;-37
2021/09/13 06:48:58;;;;;;;25.25;13.50;;;;;;;17.40;68.48;99869.28;1641731;84;21501;-36
2021/09/13 06:56:26;;;;;;;;;;;;;;;17.98;65.31;99876.03;1650043;83;21232;-37
2021/09/13 06:59:37;;;;;;;31.73;13.32;;;;;;;18.27;63.80;99869.64;1631329;84;20104;-36
2021/09/13 07:10:58;;;;;;;40.25;20.85;;;;;;;18.97;61.43;99868.66;1568675;88;21126;-36
2021/09/13 07:27:21;;;;;;;30.00;12.93;;;;;;;19.92;59.38;99873.88;1502828;90;21799;-37
2021/09/13 07:33:52;;;;;;;27.20;12.82;;;;;;;20.41;57.87;99869.83;1521062;92;21157;-37
2021/09/13 07:44:09;;;;;;;26.42;12.28;;;;;;;21.14;54.83;99864.08;1513355;91;21126;-37
2021/09/13 07:47:48;;;;;;;19.48;11.18;;;;;;;21.34;53.83;99864.89;1522192;90;21229;-35
2021/09/13 08:01:43;;;;;;;23.90;10.93;;;;;;;22.22;49.41;99855.38;1598161;87;21046;-37
2021/09/13 08:04:36;;;;;;;22.27;9.68;;;;;;;22.44;48.75;99854.59;1556126;89;21082;-35
2021/09/13 08:15:06;;;;;;;;;;;;;;;23.00;46.90;99856.31;1549719;89;21616;-35
2021/09/13 08:26:15;;;;;;;26.55;10.25;;;;;;;23.50;44.44;99848.47;1545278;87;21170;-35
2021/09/13 08:30:05;;;;;;;18.80;9.70;;;;;;;23.72;43.56;99846.72;1535736;90;21056;-38
2021/09/13 08:33:46;;;;;;;25.97;9.33;;;;;;;23.91;43.42;99841.09;1541375;89;21116;-36
2021/09/13 08:37:01;;;;;;;11.05;8.20;;;;;;;24.12;43.03;99843.30;1507943;90;21239;-37
2021/09/13 08:39:45;;;;;;;22.93;8.93;;;;;;;24.34;42.34;99837.45;1501363;92;21702;-35
2021/09/13 08:42:16;;;;;;;14.38;9.53;;;;;;;24.50;41.86;99839.14;1524545;91;21146;-36
2021/09/13 08:52:41;;;;;;;17.62;8.45;;;;;;;24.93;40.71;99834.05;1646354;84;21212;-38
2021/09/13 09:18:14;;;;;;;18.60;7.78;;;;;;;26.04;35.44;99811.27;1676985;83;21047;-36
2021/09/13 09:35:50;;;;;;;17.37;8.35;;;;;;;26.54;35.12;99801.38;1658160;84;21168;-37
2021/09/13 10:13:29;;;;;;;14.00;6.83;;;;;;;27.08;31.43;99782.14;1698074;81;21238;-37
2021/09/13 10:16:06;;;;;;;11.80;6.60;;;;;;;27.36;31.70;99776.81;1662779;83;21036;-37
2021/09/13 10:21:14;;;;;;;11.73;7.12;;;;;;;27.95;30.24;99773.09;1660468;83;21068;-37
2021/09/13 10:27:38;;;;;;;21.50;7.10;;;;;;;28.78;29.81;99775.27;1683883;82;21111;-38
2021/09/13 10:50:07;;;;;;;11.28;6.97;;;;;;;29.46;27.53;99758.28;1633646;85;21080;-38
2021/09/13 10:53:21;;;;;;;19.87;7.42;;;;;;;28.76;27.60;99752.99;1595923;86;21214;-36
2021/09/13 10:59:52;;;;;;;12.05;6.47;;;;;;;28.65;29.00;99748.54;1565144;89;21016;-38
2021/09/13 11:02:39;;;;;;;12.53;6.40;;;;;;;29.09;28.28;99746.13;1535760;90;21154;-36
2021/09/13 11:10:34;;;;;;;14.25;7.40;;;;;;;30.43;26.50;99738.77;1561961;88;21108;31
2021/09/13 11:13:20;;;;;;;15.28;6.70;;;;;;;31.06;25.20;99726.22;1509115;92;21133;-37
2021/09/13 11:16:41;;;;;;;20.20;6.85;;;;;;;31.29;24.41;99730.83;1505386;92;21590;-37
2021/09/13 11:20:12;;;;;;;27.42;6.90;;;;;;;31.34;24.43;99729.05;1509745;92;21301;-37
2021/09/13 11:23:37;;;;;;;13.48;7.17;;;;;;;31.38;24.93;99727.77;1537593;90;21077;-39
2021/09/13 11:26:41;;;;;;;11.25;6.97;;;;;;;31.46;24.99;99727.36;1540086;90;21065;-38
2021/09/13 11:34:39;;;;;;;16.40;7.60;;;;;;;30.87;24.81;99714.95;1596573;87;21088;-36
2021/09/13 11:37:26;;;;;;;18.62;7.92;;;;;;;30.53;25.63;99713.16;1567930;87;21421;-38
2021/09/13 11:40:31;;;;;;;16.23;8.53;;;;;;;30.14;26.04;99706.86;1591530;87;21076;-37
2021/09/13 11:49:38;;;;;;;12.30;7.22;;;;;;;29.12;27.55;99708.68;1538645;90;21682;-36
2021/09/13 11:52:30;;;;;;;12.33;8.00;;;;;;;29.05;27.17;99704.32;1542305;89;21226;-39
2021/09/13 11:59:04;;;;;;;12.95;6.92;;;;;;;29.01;27.67;99702.88;1560275;88;22112;-36
2021/09/13 12:01:33;;;;;;;15.40;7.33;;;;;;;28.83;27.79;99699.03;1519971;90;21076;-40
2021/09/13 12:04:20;;;;;;;16.40;8.20;;;;;;;28.76;27.49;99701.86;1560341;88;21043;-40
2021/09/13 12:07:07;;;;;;;16.35;7.55;;;;;;;28.76;27.84;99701.40;1586594;88;21626;-40
2021/09/13 12:09:42;;;;;;;11.03;7.72;;;;;;;28.82;28.37;99695.98;1579676;89;21131;-40
2021/09/13 12:12:14;;;;;;;12.25;6.85;;;;;;;28.89;28.33;99701.20;1560125;89;22109;-41
2021/09/13 12:14:43;;;;;;;15.13;7.12;;;;;;;28.89;28.48;99697.16;1536002;91;22095;-39
2021/09/13 12:17:14;;;;;;;20.65;7.00;;;;;;;28.86;28.20;99693.38;1530028;91;21084;-38
2021/09/13 12:19:49;;;;;;;;;;;;;;;28.88;28.62;99696.31;1551359;89;21065;-41
2021/09/13 12:22:27;;;;;;;23.35;8.50;;;;;;;28.92;28.89;99687.95;1532674;89;20167;-38
2021/09/13 12:25:14;;;;;;;9.60;6.78;;;;;;;28.87;27.76;99697.27;1565381;87;21058;-40
2021/09/13 12:27:51;;;;;;;13.10;7.58;;;;;;;28.76;27.91;99687.94;1568701;87;21940;-40
2021/09/13 12:30:28;;;;;;;9.68;7.22;;;;;;;28.68;27.56;99693.10;1607593;87;21035;-40
2021/09/13 12:33:02;;;;;;;10.50;6.87;;;;;;;28.67;27.72;99681.13;1558677;90;21383;-40
2021/09/13 12:35:40;;;;;;;18.20;7.28;;;;;;;28.76;27.88;99690.63;1595681;87;21699;-40
2021/09/13 12:38:22;;;;;;;15.00;7.20;;;;;;;28.76;28.65;99686.59;1566737;89;21172;-38
2021/09/13 12:41:01;;;;;;;16.05;7.80;;;;;;;28.79;28.49;99684.12;1612380;87;21238;-38
2021/09/13 12:43:37;;;;;;;13.93;7.00;;;;;;;28.90;28.02;99682.71;1605711;87;21118;-40
2021/09/13 12:46:11;;;;;;;19.75;7.45;;;;;;;28.94;27.97;99684.20;1590864;87;21220;-38
2021/09/13 12:48:43;;;;;;;12.45;7.20;;;;;;;29.03;28.79;99679.34;1626042;87;21943;-39
2021/09/13 12:51:23;;;;;;;13.25;7.35;;;;;;;29.06;28.00;99678.25;1609983;87;21576;-38
2021/09/13 12:54:01;;;;;;;15.80;7.95;;;;;;;28.98;28.63;99676.19;1637734;86;21114;-39
2021/09/13 12:56:30;;;;;;;12.05;7.35;;;;;;;28.92;29.15;99678.03;1635983;86;21631;-38
2021/09/13 12:59:19;;;;;;;12.37;7.95;;;;;;;28.90;28.04;99681.36;1608932;87;21490;-38
2021/09/13 13:01:50;;;;;;;14.90;7.67;;;;;;;28.83;28.11;99682.39;1584762;87;21107;-38
2021/09/13 13:04:21;;;;;;;17.27;8.20;;;;;;;28.82;28.31;99678.49;1560149;89;21217;-38
2021/09/13 13:07:08;;;;;;;15.55;7.28;;;;;;;28.86;29.24;99691.53;1576745;89;21164;-38
2021/09/13 13:09:41;;;;;;;10.23;7.17;;;;;;;28.99;27.87;99675.70;1558251;88;21531;-38
2021/09/13 13:12:10;;;;;;;15.70;7.03;;;;;;;28.98;28.24;99681.58;1564997;88;21204;-39
2021/09/13 13:14:40;;;;;;;9.98;6.70;;;;;;;28.93;28.90;99685.16;1662400;84;21129;-39
2021/09/13 13:17:10;;;;;;;18.62;7.67;;;;;;;28.91;28.66;99684.41;1670345;84;21141;-40
2021/09/13 13:19:42;;;;;;;13.72;7.35;;;;;;;28.84;28.94;99681.89;1673829;83;22176;-38
2021/09/13 13:22:16;;;;;;;;;;;;;;;28.76;29.17;99685.25;1652672;84;21607;-38
2021/09/13 13:24:45;;;;;;;14.28;7.22;;;;;;;28.58;29.46;99690.82;1683294;83;20520;-40
2021/09/13 13:27:14;;;;;;;9.68;7.53;;;;;;;28.31;29.66;99689.45;1677796;83;21199;-39
2021/09/13 13:29:43;;;;;;;12.15;7.85;;;;;;;28.15;30.02;99689.49;1714432;82;21093;-40
2021/09/13 13:32:13;;;;;;;16.37;7.75;;;;;;;27.93;30.61;99685.87;1693913;83;21127;-39
2021/09/13 13:34:42;;;;;;;17.70;7.35;;;;;;;27.82;30.50;99679.17;1647152;83;21739;-40
2021/09/13 13:37:11;;;;;;;14.80;7.22;;;;;;;27.80;30.16;99677.95;1685935;83;21096;-38
2021/09/13 13:39:42;;;;;;;17.92;7.83;;;;;;;27.76;30.73;99681.86;1662306;83;21176;-40
2021/09/13 13:42:10;;;;;;;13.98;8.20;;;;;;;27.69;30.39;99679.77;1664312;82;21114;-39
2021/09/13 13:44:39;;;;;;;9.35;7.87;;;;;;;27.67;30.98;99675.88;1709674;82;21497;-40
2021/09/13 13:47:10;;;;;;;13.28;8.18;;;;;;;27.70;31.17;99682.85;1669112;84;21676;-40
2021/09/13 13:49:45;;;;;;;14.28;9.08;;;;;;;27.69;31.36;99682.45;1685475;83;21090;-39
2021/09/13 13:52:15;;;;;;;18.17;8.80;;;;;;;27.69;31.61;99683.34;1675492;84;21073;-40
2021/09/13 13:54:43;;;;;;;21.30;9.98;;;;;;;27.67;31.97;99677.22;1656293;83;21710;-41
2021/09/13 13:57:11;;;;;;;16.48;9.65;;;;;;;27.73;31.58;99685.31;1674309;82;21037;-38
2021/09/13 14:00:23;;;;;;;16.55;9.15;;;;;;;27.87;31.53;99685.03;1648974;83;21039;-38
2021/09/13 14:02:58;;;;;;;14.28;8.30;;;;;;;27.97;31.33;99679.77;1665191;83;21144;-36
2021/09/13 14:05:30;;;;;;;14.55;8.03;;;;;;;27.96;31.20;99683.44;1679248;83;21039;-38
2021/09/13 14:08:00;;;;;;;15.45;8.85;;;;;;;28.00;30.98;99683.53;1670324;84;21099;-36
2021/09/13 14:10:30;;;;;;;14.85;8.53;;;;;;;28.15;30.38;99683.63;1626205;85;20997;-39
2021/09/13 14:12:58;;;;;;;14.45;8.38;;;;;;;28.35;30.00;99680.18;1669819;83;21066;-40
2021/09/13 14:15:26;;;;;;;21.70;8.65;;;;;;;28.54;30.15;99682.17;1669606;84;21630;-40
2021/09/13 14:17:56;;;;;;;11.88;8.43;;;;;;;28.64;29.92;99678.19;1643562;84;21670;-38
2021/09/13 14:20:24;;;;;;;12.05;7.87;;;;;;;28.62;30.17;99678.82;1654154;84;21008;-38
2021/09/13 14:22:53;;;;;;;13.75;7.78;;;;;;;28.60;29.66;99676.77;1694512;83;21045;-38
2021/09/13 14:25:23;;;;;;;11.45;8.08;;;;;;;28.56;29.44;99682.89;1677177;83;21064;-35
2021/09/13 14:27:51;;;;;;;11.57;8.65;;;;;;;28.56;29.35;99674.81;1700136;82;21113;-38
2021/09/13 14:30:20;;;;;;;17.25;8.58;;;;;;;28.67;28.98;99671.22;1632122;85;21620;-36
2021/09/13 14:32:50;;;;;;;11.83;8.50;;;;;;;28.99;29.20;99667.16;1672871;84;21306;-39
2021/09/13 14:35:18;;;;;;;15.00;9.38;;;;;;;29.27;29.10;99669.62;1676811;84;21483;-40
2021/09/13 14:37:46;;;;;;;19.00;9.05;;;;;;;29.39;28.82;99670.38;1680760;84;21637;-39
2021/09/13 14:40:15;;;;;;;13.60;9.75;;;;;;;29.52;28.29;99674.22;1660659;83;21034;-36
2021/09/13 14:46:27;;;;;;;13.38;8.65;;;;;;;28.96;28.78;99670.10;1700991;83;21001;-36
2021/09/13 14:49:26;;;;;;;20.70;8.85;;;;;;;28.98;28.70;99668.12;1661496;84;21619;-35
